Time,TemperatureF,DewpointF,PressureIn,WindDirection,WindDirectionDegrees,WindSpeedMPH,WindSpeedGustMPH,Humidity,HourlyPrecipIn,Conditions,Clouds,dailyrainin,SoftwareType,DateUTC
2013-04-01 00:02:00,44.7,43.0,29.52,ESE,123,2.0,8.0,95,0.20,,,0.31,weatherlink.com 1.10,2013-04-01 04:02:00,
2013-04-01 00:17:00,44.6,43.0,29.50,SSW,207,7.0,14.0,95,0.19,,,0.34,weatherlink.com 1.10,2013-04-01 04:17:00,
2013-04-01 00:32:00,44.5,43.0,29.48,SW,228,2.0,11.0,95,0.15,,,0.36,weatherlink.com 1.10,2013-04-01 04:32:00,
2013-04-01 00:47:00,44.7,44.0,29.46,SW,236,7.0,12.0,96,0.10,,,0.37,weatherlink.com 1.10,2013-04-01 04:47:00,
2013-04-01 01:02:00,45.0,44.0,29.45,SW,235,4.0,20.0,96,0.07,,,0.01,weatherlink.com 1.10,2013-04-01 05:02:00,
2013-04-01 01:17:00,45.3,45.0,29.43,NNW,330,7.0,14.0,97,0.04,,,0.01,weatherlink.com 1.10,2013-04-01 05:17:00,
2013-04-01 01:33:00,45.8,45.0,29.42,West,281,3.0,9.0,97,0.02,,,0.01,weatherlink.com 1.10,2013-04-01 05:33:00,
2013-04-01 01:47:00,46.5,46.0,29.41,NW,314,7.0,15.0,97,0.01,,,0.01,weatherlink.com 1.10,2013-04-01 05:47:00,
2013-04-01 02:02:00,46.2,45.0,29.40,NW,326,3.0,13.0,96,0.01,,,0.02,weatherlink.com 1.10,2013-04-01 06:02:00,
2013-04-01 02:17:00,45.8,45.0,29.40,NW,307,7.0,13.0,96,0.01,,,0.02,weatherlink.com 1.10,2013-04-01 06:17:00,
2013-04-01 02:47:00,45.9,45.0,29.39,East,87,2.0,11.0,97,0.01,,,0.02,weatherlink.com 1.10,2013-04-01 06:47:00,
2013-04-01 03:02:00,46.5,46.0,29.40,NNW,335,1.0,11.0,97,0.00,,,0.02,weatherlink.com 1.10,2013-04-01 07:02:00,
2013-04-01 03:17:00,46.6,46.0,29.40,North,349,1.0,10.0,97,0.00,,,0.02,weatherlink.com 1.10,2013-04-01 07:17:00,
2013-04-01 03:32:00,46.8,46.0,29.40,NNE,16,9.0,9.0,97,0.00,,,0.02,weatherlink.com 1.10,2013-04-01 07:32:00,
2013-04-01 03:47:00,46.9,46.0,29.40,NNE,18,5.0,12.0,96,0.00,,,0.02,weatherlink.com 1.10,2013-04-01 07:47:00,
2013-04-01 04:02:00,47.1,46.0,29.41,ENE,61,5.0,10.0,95,0.00,,,0.02,weatherlink.com 1.10,2013-04-01 08:02:00,
2013-04-01 04:17:00,47.2,46.0,29.42,NNE,27,0.0,13.0,94,0.00,,,0.02,weatherlink.com 1.10,2013-04-01 08:17:00,
2013-04-01 04:32:00,46.9,45.0,29.43,NNE,15,3.0,7.0,93,0.00,,,0.02,weatherlink.com 1.10,2013-04-01 08:32:00,
2013-04-01 04:47:00,46.5,44.0,29.43,NE,46,4.0,18.0,92,0.00,,,0.02,weatherlink.com 1.10,2013-04-01 08:47:00,
2013-04-01 05:02:00,45.9,44.0,29.44,ESE,103,2.0,14.0,91,0.00,,,0.02,weatherlink.com 1.10,2013-04-01 09:02:00,
2013-04-01 05:17:00,45.2,43.0,29.45,ENE,62,8.0,11.0,91,0.00,,,0.02,weatherlink.com 1.10,2013-04-01 09:17:00,
2013-04-01 05:32:00,44.7,42.0,29.45,NNE,26,6.0,12.0,91,0.00,,,0.02,weatherlink.com 1.10,2013-04-01 09:32:00,
2013-04-01 05:47:00,44.4,42.0,29.45,North,11,9.0,12.0,92,0.00,,,0.02,weatherlink.com 1.10,2013-04-01 09:47:00,
2013-04-01 06:02:00,44.3,42.0,29.45,NNW,335,2.0,12.0,92,0.00,,,0.02,weatherlink.com 1.10,2013-04-01 10:02:00,
2013-04-01 06:17:00,44.0,42.0,29.45,North,354,2.0,13.0,91,0.00,,,0.02,weatherlink.com 1.10,2013-04-01 10:17:00,
2013-04-01 06:32:00,43.7,42.0,29.45,NNE,33,7.0,13.0,92,0.00,,,0.02,weatherlink.com 1.10,2013-04-01 10:32:00,
2013-04-01 06:47:00,43.6,41.0,29.46,East,101,5.0,10.0,91,0.00,,,0.02,weatherlink.com 1.10,2013-04-01 10:47:00,
2013-04-01 07:03:00,43.7,41.0,29.47,NNE,20,4.0,10.0,91,0.00,,,0.02,weatherlink.com 1.10,2013-04-01 11:03:00,
2013-04-01 07:18:00,45.1,44.0,29.49,NNW,343,3.0,8.0,94,0.00,,,0.02,weatherlink.com 1.10,2013-04-01 11:18:00,
2013-04-01 07:33:00,45.1,41.0,29.48,NNE,19,5.0,10.0,86,0.00,,,0.02,weatherlink.com 1.10,2013-04-01 11:33:00,
2013-04-01 07:48:00,45.4,42.0,29.48,NE,43,10.0,11.0,87,0.00,,,0.02,weatherlink.com 1.10,2013-04-01 11:48:00,
2013-04-01 08:03:00,45.7,42.0,29.48,NNE,18,8.0,10.0,86,0.00,,,0.02,weatherlink.com 1.10,2013-04-01 12:03:00,
2013-04-01 08:18:00,46.5,42.0,29.49,NNW,344,5.0,14.0,83,0.00,,,0.02,weatherlink.com 1.10,2013-04-01 12:18:00,
2013-04-01 08:33:00,47.6,42.0,29.49,NW,317,7.0,11.0,82,0.00,,,0.02,weatherlink.com 1.10,2013-04-01 12:33:00,
2013-04-01 08:48:00,47.8,42.0,29.49,ENE,77,2.0,14.0,81,0.00,,,0.02,weatherlink.com 1.10,2013-04-01 12:48:00,
2013-04-01 09:03:00,48.3,42.0,29.49,NE,56,6.0,11.0,79,0.00,,,0.02,weatherlink.com 1.10,2013-04-01 13:03:00,
2013-04-01 09:18:00,49.1,43.0,29.49,North,357,8.0,10.0,78,0.00,,,0.02,weatherlink.com 1.10,2013-04-01 13:18:00,
2013-04-01 09:33:00,50.4,42.0,29.49,NNW,336,8.0,10.0,74,0.00,,,0.02,weatherlink.com 1.10,2013-04-01 13:33:00,
2013-04-01 09:48:00,51.1,42.0,29.48,NNE,16,1.0,9.0,72,0.00,,,0.02,weatherlink.com 1.10,2013-04-01 13:48:00,
2013-04-01 10:03:00,53.0,43.0,29.48,ENE,65,6.0,8.0,70,0.00,,,0.02,weatherlink.com 1.10,2013-04-01 14:03:00,
2013-04-01 10:18:00,53.6,43.0,29.48,NNW,335,4.0,10.0,67,0.00,,,0.02,weatherlink.com 1.10,2013-04-01 14:18:00,
2013-04-01 10:48:00,55.4,43.0,29.48,NE,36,4.0,11.0,64,0.00,,,0.02,weatherlink.com 1.10,2013-04-01 14:48:00,
2013-04-01 11:03:00,56.2,42.0,29.48,North,352,7.0,16.0,60,0.00,,,0.02,weatherlink.com 1.10,2013-04-01 15:03:00,
2013-04-01 11:18:00,56.7,42.0,29.48,North,351,11.0,16.0,58,0.00,,,0.02,weatherlink.com 1.10,2013-04-01 15:18:00,
2013-04-01 11:33:00,57.7,45.0,29.47,NW,314,6.0,11.0,62,0.00,,,0.02,weatherlink.com 1.10,2013-04-01 15:33:00,
2013-04-01 11:48:00,57.0,44.0,29.47,WNW,285,3.0,13.0,63,0.00,,,0.02,weatherlink.com 1.10,2013-04-01 15:48:00,
2013-04-01 12:03:00,57.2,45.0,29.47,NW,312,5.0,15.0,64,0.00,,,0.02,weatherlink.com 1.10,2013-04-01 16:03:00,
2013-04-01 12:18:00,55.0,45.0,29.46,NE,35,5.0,23.0,68,0.00,,,0.02,weatherlink.com 1.10,2013-04-01 16:18:00,
2013-04-01 12:48:00,54.9,44.0,29.46,North,353,2.0,21.0,68,0.00,,,0.02,weatherlink.com 1.10,2013-04-01 16:48:00,
2013-04-01 13:03:00,56.5,44.0,29.45,NNW,346,6.0,16.0,64,0.00,,,0.02,weatherlink.com 1.10,2013-04-01 17:03:00,
2013-04-01 13:18:00,56.8,44.0,29.44,North,350,10.0,17.0,63,0.00,,,0.02,weatherlink.com 1.10,2013-04-01 17:18:00,
2013-04-01 13:33:00,56.7,45.0,29.44,NNW,340,7.0,18.0,64,0.00,,,0.02,weatherlink.com 1.10,2013-04-01 17:33:00,
2013-04-01 13:48:00,56.8,44.0,29.43,NNW,335,5.0,25.0,63,0.00,,,0.02,weatherlink.com 1.10,2013-04-01 17:48:00,
2013-04-01 14:03:00,56.8,44.0,29.43,North,350,11.0,20.0,62,0.00,,,0.02,weatherlink.com 1.10,2013-04-01 18:03:00,
2013-04-01 14:18:00,57.5,44.0,29.42,North,11,3.0,19.0,62,0.00,,,0.02,weatherlink.com 1.10,2013-04-01 18:18:00,
2013-04-01 14:33:00,56.2,45.0,29.42,NW,312,12.0,20.0,66,0.00,,,0.02,weatherlink.com 1.10,2013-04-01 18:33:00,
2013-04-01 14:48:00,56.4,45.0,29.42,North,356,10.0,19.0,65,0.00,,,0.02,weatherlink.com 1.10,2013-04-01 18:48:00,
2013-04-01 15:04:00,55.9,44.0,29.41,NW,304,4.0,26.0,65,0.00,,,0.02,weatherlink.com 1.10,2013-04-01 19:04:00,
2013-04-01 15:19:00,56.6,44.0,29.41,ESE,103,5.0,20.0,63,0.00,,,0.02,weatherlink.com 1.10,2013-04-01 19:19:00,
2013-04-01 15:34:00,57.4,44.0,29.40,NNW,328,7.0,20.0,62,0.00,,,0.02,weatherlink.com 1.10,2013-04-01 19:34:00,
2013-04-01 15:49:00,56.8,43.0,29.40,NW,325,8.0,25.0,61,0.00,,,0.02,weatherlink.com 1.10,2013-04-01 19:49:00,
2013-04-01 16:04:00,57.0,43.0,29.39,NNW,339,8.0,23.0,60,0.00,,,0.02,weatherlink.com 1.10,2013-04-01 20:04:00,
2013-04-01 16:19:00,56.5,43.0,29.40,NW,326,17.0,20.0,60,0.00,,,0.02,weatherlink.com 1.10,2013-04-01 20:19:00,
2013-04-01 16:34:00,56.1,43.0,29.40,NW,315,8.0,22.0,62,0.00,,,0.02,weatherlink.com 1.10,2013-04-01 20:34:00,
2013-04-01 16:49:00,54.6,43.0,29.42,ENE,57,9.0,20.0,65,0.00,,,0.02,weatherlink.com 1.10,2013-04-01 20:49:00,
2013-04-01 17:04:00,49.7,44.0,29.43,NNE,33,5.0,13.0,81,0.00,,,0.02,weatherlink.com 1.10,2013-04-01 21:04:00,
2013-04-01 17:19:00,48.8,45.0,29.43,NW,321,5.0,10.0,85,0.00,,,0.02,weatherlink.com 1.10,2013-04-01 21:19:00,
2013-04-01 17:34:00,49.3,44.0,29.44,NW,317,3.0,10.0,83,0.00,,,0.02,weatherlink.com 1.10,2013-04-01 21:34:00,
2013-04-01 17:49:00,49.1,45.0,29.45,NNE,25,3.0,9.0,84,0.00,,,0.02,weatherlink.com 1.10,2013-04-01 21:49:00,
2013-04-01 18:04:00,44.3,39.0,29.48,ENE,75,11.0,33.0,80,0.00,,,0.02,weatherlink.com 1.10,2013-04-01 22:04:00,
2013-04-01 18:34:00,40.1,36.0,29.50,ENE,78,5.0,12.0,86,0.00,,,0.02,weatherlink.com 1.10,2013-04-01 22:34:00,
2013-04-01 18:49:00,39.9,36.0,29.50,East,90,2.0,15.0,85,0.00,,,0.02,weatherlink.com 1.10,2013-04-01 22:49:00,
2013-04-01 19:04:00,39.9,36.0,29.52,ENE,65,3.0,13.0,85,0.00,,,0.02,weatherlink.com 1.10,2013-04-01 23:04:00,
2013-04-01 19:19:00,39.6,35.0,29.53,East,82,3.0,11.0,84,0.00,,,0.02,weatherlink.com 1.10,2013-04-01 23:19:00,
2013-04-01 19:34:00,39.5,35.0,29.53,East,79,5.0,8.0,85,0.00,,,0.02,weatherlink.com 1.10,2013-04-01 23:34:00,
2013-04-01 19:49:00,39.2,34.0,29.53,ENE,71,7.0,11.0,80,0.00,,,0.02,weatherlink.com 1.10,2013-04-01 23:49:00,
2013-04-01 20:04:00,39.1,32.0,29.54,East,81,5.0,11.0,77,0.00,,,0.02,weatherlink.com 1.10,2013-04-02 00:04:00,
2013-04-01 20:19:00,39.2,31.0,29.56,NE,39,7.0,10.0,73,0.00,,,0.02,weatherlink.com 1.10,2013-04-02 00:19:00,
2013-04-01 20:34:00,39.1,31.0,29.57,ENE,78,5.0,9.0,72,0.00,,,0.02,weatherlink.com 1.10,2013-04-02 00:34:00,
2013-04-01 20:49:00,38.5,29.0,29.56,ENE,63,6.0,10.0,70,0.00,,,0.02,weatherlink.com 1.10,2013-04-02 00:49:00,
2013-04-01 21:04:00,38.3,29.0,29.57,East,89,3.0,11.0,68,0.00,,,0.02,weatherlink.com 1.10,2013-04-02 01:04:00,
2013-04-01 21:19:00,38.1,24.0,29.58,East,96,6.0,14.0,57,0.00,,,0.02,weatherlink.com 1.10,2013-04-02 01:19:00,
2013-04-01 21:34:00,37.7,22.0,29.59,ENE,64,4.0,12.0,54,0.00,,,0.02,weatherlink.com 1.10,2013-04-02 01:34:00,
2013-04-01 21:49:00,37.3,21.0,29.61,East,101,3.0,10.0,53,0.00,,,0.02,weatherlink.com 1.10,2013-04-02 01:49:00,
2013-04-01 22:05:00,37.1,20.0,29.61,NNE,22,5.0,13.0,50,0.00,,,0.02,weatherlink.com 1.10,2013-04-02 02:05:00,
2013-04-01 22:20:00,36.7,20.0,29.62,ESE,108,4.0,10.0,50,0.00,,,0.02,weatherlink.com 1.10,2013-04-02 02:20:00,
2013-04-01 22:35:00,35.9,20.0,29.63,NE,53,5.0,6.0,52,0.00,,,0.02,weatherlink.com 1.10,2013-04-02 02:35:00,
2013-04-01 22:50:00,35.1,19.0,29.63,ENE,60,4.0,7.0,53,0.00,,,0.02,weatherlink.com 1.10,2013-04-02 02:50:00,
2013-04-01 23:05:00,35.4,18.0,29.63,ENE,64,2.0,10.0,49,0.00,,,0.02,weatherlink.com 1.10,2013-04-02 03:05:00,
2013-04-01 23:20:00,35.2,18.0,29.63,East,85,6.0,18.0,49,0.00,,,0.02,weatherlink.com 1.10,2013-04-02 03:20:00,
2013-04-01 23:35:00,34.9,18.0,29.64,ENE,61,9.0,13.0,50,0.00,,,0.02,weatherlink.com 1.10,2013-04-02 03:35:00,
2013-04-01 23:50:00,34.6,18.0,29.64,ENE,66,7.0,12.0,51,0.00,,,0.02,weatherlink.com 1.10,2013-04-02 03:50:00,